sensor_id;sensor_type;location;lat;lon;timestamp;P1;durP1;ratioP1;P2;durP2;ratioP2
56943;SDS011;42848;42.524;12.052;2023-07-31T00:00:46;4.60;;;2.70;;
56943;SDS011;42848;42.524;12.052;2023-07-31T00:03:12;4.80;;;3.00;;
56943;SDS011;42848;42.524;12.052;2023-07-31T00:05:37;5.35;;;3.00;;
56943;SDS011;42848;42.524;12.052;2023-07-31T00:08:03;5.50;;;3.00;;
56943;SDS011;42848;42.524;12.052;2023-07-31T00:10:29;5.30;;;2.88;;
56943;SDS011;42848;42.524;12.052;2023-07-31T00:12:54;4.70;;;3.13;;
56943;SDS011;42848;42.524;12.052;2023-07-31T00:15:20;5.22;;;3.30;;
56943;SDS011;42848;42.524;12.052;2023-07-31T00:17:45;4.90;;;3.13;;
56943;SDS011;42848;42.524;12.052;2023-07-31T00:20:12;6.07;;;3.13;;
56943;SDS011;42848;42.524;12.052;2023-07-31T00:22:37;7.43;;;3.28;;
56943;SDS011;42848;42.524;12.052;2023-07-31T00:25:03;5.53;;;3.47;;
56943;SDS011;42848;42.524;12.052;2023-07-31T00:27:31;4.43;;;3.30;;
56943;SDS011;42848;42.524;12.052;2023-07-31T00:29:57;7.70;;;3.80;;
56943;SDS011;42848;42.524;12.052;2023-07-31T00:32:23;5.53;;;3.70;;
56943;SDS011;42848;42.524;12.052;2023-07-31T00:34:48;6.57;;;3.70;;
56943;SDS011;42848;42.524;12.052;2023-07-31T00:37:14;6.93;;;3.53;;
56943;SDS011;42848;42.524;12.052;2023-07-31T00:39:40;6.60;;;3.75;;
56943;SDS011;42848;42.524;12.052;2023-07-31T00:42:06;8.40;;;3.95;;
56943;SDS011;42848;42.524;12.052;2023-07-31T00:44:32;7.72;;;4.32;;
56943;SDS011;42848;42.524;12.052;2023-07-31T00:46:58;5.15;;;3.55;;
56943;SDS011;42848;42.524;12.052;2023-07-31T00:49:24;6.43;;;3.50;;
56943;SDS011;42848;42.524;12.052;2023-07-31T00:51:51;5.85;;;3.83;;
56943;SDS011;42848;42.524;12.052;2023-07-31T00:54:17;6.63;;;3.65;;
56943;SDS011;42848;42.524;12.052;2023-07-31T00:56:44;9.07;;;4.32;;
56943;SDS011;42848;42.524;12.052;2023-07-31T00:59:11;8.30;;;3.95;;
56943;SDS011;42848;42.524;12.052;2023-07-31T01:01:37;7.10;;;4.13;;
56943;SDS011;42848;42.524;12.052;2023-07-31T01:04:06;6.32;;;3.72;;
56943;SDS011;42848;42.524;12.052;2023-07-31T01:06:36;8.15;;;4.20;;
56943;SDS011;42848;42.524;12.052;2023-07-31T01:09:25;6.95;;;4.07;;
56943;SDS011;42848;42.524;12.052;2023-07-31T01:12:13;6.50;;;3.70;;
56943;SDS011;42848;42.524;12.052;2023-07-31T01:14:50;7.72;;;3.45;;
56943;SDS011;42848;42.524;12.052;2023-07-31T01:17:28;5.13;;;3.50;;
56943;SDS011;42848;42.524;12.052;2023-07-31T01:19:54;6.80;;;4.10;;
56943;SDS011;42848;42.524;12.052;2023-07-31T01:22:30;6.15;;;3.90;;
56943;SDS011;42848;42.524;12.052;2023-07-31T01:25:32;6.75;;;4.13;;
56943;SDS011;42848;42.524;12.052;2023-07-31T01:28:13;5.65;;;3.90;;
56943;SDS011;42848;42.524;12.052;2023-07-31T01:30:47;6.80;;;3.70;;
56943;SDS011;42848;42.524;12.052;2023-07-31T01:33:16;8.40;;;3.97;;
56943;SDS011;42848;42.524;12.052;2023-07-31T01:35:43;5.75;;;4.00;;
56943;SDS011;42848;42.524;12.052;2023-07-31T01:38:11;7.05;;;3.90;;
56943;SDS011;42848;42.524;12.052;2023-07-31T01:40:37;5.82;;;3.97;;
56943;SDS011;42848;42.524;12.052;2023-07-31T01:43:02;7.10;;;3.70;;
56943;SDS011;42848;42.524;12.052;2023-07-31T01:45:28;6.82;;;3.90;;
56943;SDS011;42848;42.524;12.052;2023-07-31T01:47:54;5.75;;;3.78;;
56943;SDS011;42848;42.524;12.052;2023-07-31T01:50:19;5.32;;;3.88;;
56943;SDS011;42848;42.524;12.052;2023-07-31T01:52:45;8.25;;;4.28;;
56943;SDS011;42848;42.524;12.052;2023-07-31T01:55:10;7.22;;;3.97;;
56943;SDS011;42848;42.524;12.052;2023-07-31T01:57:36;7.63;;;3.95;;
56943;SDS011;42848;42.524;12.052;2023-07-31T02:00:03;6.72;;;3.83;;
56943;SDS011;42848;42.524;12.052;2023-07-31T02:02:29;7.78;;;3.88;;
56943;SDS011;42848;42.524;12.052;2023-07-31T02:04:55;6.78;;;4.22;;
56943;SDS011;42848;42.524;12.052;2023-07-31T02:07:20;8.35;;;3.85;;
56943;SDS011;42848;42.524;12.052;2023-07-31T02:09:46;6.35;;;4.05;;
56943;SDS011;42848;42.524;12.052;2023-07-31T02:12:13;8.98;;;4.43;;
56943;SDS011;42848;42.524;12.052;2023-07-31T02:14:40;7.22;;;4.60;;
56943;SDS011;42848;42.524;12.052;2023-07-31T02:17:06;6.20;;;3.97;;
56943;SDS011;42848;42.524;12.052;2023-07-31T02:19:32;8.85;;;4.30;;
56943;SDS011;42848;42.524;12.052;2023-07-31T02:21:57;9.55;;;4.53;;
56943;SDS011;42848;42.524;12.052;2023-07-31T02:24:23;8.15;;;4.20;;
56943;SDS011;42848;42.524;12.052;2023-07-31T02:26:49;7.72;;;4.47;;
56943;SDS011;42848;42.524;12.052;2023-07-31T02:29:15;8.18;;;4.90;;
56943;SDS011;42848;42.524;12.052;2023-07-31T02:31:40;8.25;;;5.03;;
56943;SDS011;42848;42.524;12.052;2023-07-31T02:34:06;8.15;;;4.93;;
56943;SDS011;42848;42.524;12.052;2023-07-31T02:36:32;9.30;;;5.43;;
56943;SDS011;42848;42.524;12.052;2023-07-31T02:38:57;7.65;;;5.03;;
56943;SDS011;42848;42.524;12.052;2023-07-31T02:41:23;7.35;;;5.15;;
56943;SDS011;42848;42.524;12.052;2023-07-31T02:43:48;8.13;;;5.18;;
56943;SDS011;42848;42.524;12.052;2023-07-31T02:46:14;7.45;;;4.97;;
56943;SDS011;42848;42.524;12.052;2023-07-31T02:48:39;11.15;;;5.35;;
56943;SDS011;42848;42.524;12.052;2023-07-31T02:51:05;7.90;;;5.00;;
56943;SDS011;42848;42.524;12.052;2023-07-31T02:53:30;9.80;;;5.00;;
56943;SDS011;42848;42.524;12.052;2023-07-31T02:55:56;7.70;;;4.85;;
56943;SDS011;42848;42.524;12.052;2023-07-31T02:58:21;9.07;;;4.60;;
56943;SDS011;42848;42.524;12.052;2023-07-31T03:00:47;6.70;;;4.30;;
56943;SDS011;42848;42.524;12.052;2023-07-31T03:03:13;7.35;;;4.80;;
56943;SDS011;42848;42.524;12.052;2023-07-31T03:05:38;7.32;;;4.60;;
56943;SDS011;42848;42.524;12.052;2023-07-31T03:08:04;6.78;;;4.50;;
56943;SDS011;42848;42.524;12.052;2023-07-31T03:10:29;7.50;;;4.38;;
56943;SDS011;42848;42.524;12.052;2023-07-31T03:12:55;8.15;;;4.07;;
56943;SDS011;42848;42.524;12.052;2023-07-31T03:15:21;6.85;;;4.50;;
56943;SDS011;42848;42.524;12.052;2023-07-31T03:17:46;8.27;;;4.20;;
56943;SDS011;42848;42.524;12.052;2023-07-31T03:20:12;6.75;;;4.50;;
56943;SDS011;42848;42.524;12.052;2023-07-31T03:22:37;6.45;;;3.83;;
56943;SDS011;42848;42.524;12.052;2023-07-31T03:25:03;5.72;;;3.83;;
56943;SDS011;42848;42.524;12.052;2023-07-31T03:27:29;5.85;;;4.13;;
56943;SDS011;42848;42.524;12.052;2023-07-31T03:29:55;7.18;;;3.95;;
56943;SDS011;42848;42.524;12.052;2023-07-31T03:32:21;6.80;;;3.72;;
56943;SDS011;42848;42.524;12.052;2023-07-31T03:34:46;6.72;;;4.05;;
56943;SDS011;42848;42.524;12.052;2023-07-31T03:37:12;5.70;;;3.33;;
56943;SDS011;42848;42.524;12.052;2023-07-31T03:39:38;6.13;;;3.78;;
56943;SDS011;42848;42.524;12.052;2023-07-31T03:42:03;7.82;;;3.80;;
56943;SDS011;42848;42.524;12.052;2023-07-31T03:44:29;6.15;;;3.80;;
56943;SDS011;42848;42.524;12.052;2023-07-31T03:46:55;5.65;;;3.47;;
56943;SDS011;42848;42.524;12.052;2023-07-31T03:49:20;6.55;;;3.75;;
56943;SDS011;42848;42.524;12.052;2023-07-31T03:51:46;5.97;;;3.65;;
56943;SDS011;42848;42.524;12.052;2023-07-31T03:54:11;5.65;;;3.28;;
56943;SDS011;42848;42.524;12.052;2023-07-31T03:56:38;5.47;;;3.40;;
56943;SDS011;42848;42.524;12.052;2023-07-31T03:59:04;7.03;;;3.63;;
56943;SDS011;42848;42.524;12.052;2023-07-31T04:01:29;4.88;;;3.30;;
56943;SDS011;42848;42.524;12.052;2023-07-31T04:03:55;7.00;;;3.72;;
56943;SDS011;42848;42.524;12.052;2023-07-31T04:06:20;6.10;;;3.70;;
56943;SDS011;42848;42.524;12.052;2023-07-31T04:08:46;5.95;;;3.78;;
56943;SDS011;42848;42.524;12.052;2023-07-31T04:11:12;5.40;;;3.30;;
56943;SDS011;42848;42.524;12.052;2023-07-31T04:13:37;5.32;;;3.40;;
56943;SDS011;42848;42.524;12.052;2023-07-31T04:16:04;5.47;;;3.40;;
56943;SDS011;42848;42.524;12.052;2023-07-31T04:18:30;6.97;;;3.15;;
56943;SDS011;42848;42.524;12.052;2023-07-31T04:20:57;5.15;;;3.22;;
56943;SDS011;42848;42.524;12.052;2023-07-31T04:23:23;5.65;;;3.00;;
56943;SDS011;42848;42.524;12.052;2023-07-31T04:25:50;5.53;;;4.25;;
56943;SDS011;42848;42.524;12.052;2023-07-31T04:28:16;6.38;;;3.13;;
56943;SDS011;42848;42.524;12.052;2023-07-31T04:30:41;6.50;;;3.30;;
56943;SDS011;42848;42.524;12.052;2023-07-31T04:33:07;4.85;;;2.83;;
56943;SDS011;42848;42.524;12.052;2023-07-31T04:35:33;6.35;;;3.13;;
56943;SDS011;42848;42.524;12.052;2023-07-31T04:37:58;4.57;;;2.90;;
56943;SDS011;42848;42.524;12.052;2023-07-31T04:40:24;3.88;;;2.70;;
56943;SDS011;42848;42.524;12.052;2023-07-31T04:42:50;5.53;;;2.67;;
56943;SDS011;42848;42.524;12.052;2023-07-31T04:45:15;5.13;;;2.60;;
56943;SDS011;42848;42.524;12.052;2023-07-31T04:47:41;4.85;;;2.30;;
56943;SDS011;42848;42.524;12.052;2023-07-31T04:50:07;3.08;;;1.92;;
56943;SDS011;42848;42.524;12.052;2023-07-31T04:52:32;4.68;;;2.20;;
56943;SDS011;42848;42.524;12.052;2023-07-31T04:54:58;3.92;;;2.20;;
56943;SDS011;42848;42.524;12.052;2023-07-31T04:57:24;5.47;;;2.13;;
56943;SDS011;42848;42.524;12.052;2023-07-31T04:59:49;3.13;;;2.05;;
56943;SDS011;42848;42.524;12.052;2023-07-31T05:02:15;3.80;;;2.20;;
56943;SDS011;42848;42.524;12.052;2023-07-31T05:04:41;3.33;;;1.95;;
56943;SDS011;42848;42.524;12.052;2023-07-31T05:07:06;2.95;;;2.00;;
56943;SDS011;42848;42.524;12.052;2023-07-31T05:09:32;4.75;;;2.22;;
56943;SDS011;42848;42.524;12.052;2023-07-31T05:11:58;5.97;;;3.25;;
56943;SDS011;42848;42.524;12.052;2023-07-31T05:14:23;8.95;;;6.32;;
56943;SDS011;42848;42.524;12.052;2023-07-31T05:16:49;15.68;;;9.90;;
56943;SDS011;42848;42.524;12.052;2023-07-31T05:19:15;7.93;;;5.38;;
56943;SDS011;42848;42.524;12.052;2023-07-31T05:21:40;5.68;;;3.42;;
56943;SDS011;42848;42.524;12.052;2023-07-31T05:24:06;4.95;;;3.00;;
56943;SDS011;42848;42.524;12.052;2023-07-31T05:26:31;11.25;;;8.43;;
56943;SDS011;42848;42.524;12.052;2023-07-31T05:28:57;8.82;;;5.65;;
56943;SDS011;42848;42.524;12.052;2023-07-31T05:31:23;8.63;;;4.82;;
56943;SDS011;42848;42.524;12.052;2023-07-31T05:33:49;8.98;;;4.68;;
56943;SDS011;42848;42.524;12.052;2023-07-31T05:36:16;8.68;;;5.20;;
56943;SDS011;42848;42.524;12.052;2023-07-31T05:38:42;4.50;;;2.50;;
56943;SDS011;42848;42.524;12.052;2023-07-31T05:41:10;6.90;;;4.53;;
56943;SDS011;42848;42.524;12.052;2023-07-31T05:43:39;8.27;;;3.53;;
56943;SDS011;42848;42.524;12.052;2023-07-31T05:46:04;5.78;;;4.10;;
56943;SDS011;42848;42.524;12.052;2023-07-31T05:48:32;5.40;;;4.07;;
56943;SDS011;42848;42.524;12.052;2023-07-31T05:50:59;3.90;;;2.60;;
56943;SDS011;42848;42.524;12.052;2023-07-31T05:53:25;3.58;;;2.45;;
56943;SDS011;42848;42.524;12.052;2023-07-31T05:55:50;5.68;;;2.53;;
56943;SDS011;42848;42.524;12.052;2023-07-31T05:58:16;9.25;;;2.63;;
56943;SDS011;42848;42.524;12.052;2023-07-31T06:00:41;5.57;;;2.28;;
56943;SDS011;42848;42.524;12.052;2023-07-31T06:03:07;4.30;;;2.47;;
56943;SDS011;42848;42.524;12.052;2023-07-31T06:05:32;5.28;;;2.85;;
56943;SDS011;42848;42.524;12.052;2023-07-31T06:07:58;4.53;;;2.80;;
56943;SDS011;42848;42.524;12.052;2023-07-31T06:10:24;6.05;;;4.00;;
56943;SDS011;42848;42.524;12.052;2023-07-31T06:12:49;5.97;;;3.33;;
56943;SDS011;42848;42.524;12.052;2023-07-31T06:15:15;6.05;;;3.65;;
56943;SDS011;42848;42.524;12.052;2023-07-31T06:17:41;4.30;;;3.10;;
56943;SDS011;42848;42.524;12.052;2023-07-31T06:20:07;4.03;;;2.65;;
56943;SDS011;42848;42.524;12.052;2023-07-31T06:22:33;5.57;;;3.28;;
56943;SDS011;42848;42.524;12.052;2023-07-31T06:24:59;4.43;;;2.40;;
56943;SDS011;42848;42.524;12.052;2023-07-31T06:27:24;5.35;;;3.85;;
56943;SDS011;42848;42.524;12.052;2023-07-31T06:29:50;5.10;;;3.03;;
56943;SDS011;42848;42.524;12.052;2023-07-31T06:32:16;3.70;;;2.30;;
56943;SDS011;42848;42.524;12.052;2023-07-31T06:34:41;8.57;;;3.88;;
56943;SDS011;42848;42.524;12.052;2023-07-31T06:37:07;7.55;;;3.30;;
56943;SDS011;42848;42.524;12.052;2023-07-31T06:39:32;4.43;;;2.97;;
56943;SDS011;42848;42.524;12.052;2023-07-31T06:41:58;5.97;;;3.03;;
56943;SDS011;42848;42.524;12.052;2023-07-31T06:44:24;5.30;;;2.67;;
56943;SDS011;42848;42.524;12.052;2023-07-31T06:46:50;5.05;;;2.78;;
56943;SDS011;42848;42.524;12.052;2023-07-31T06:49:16;4.57;;;2.25;;
56943;SDS011;42848;42.524;12.052;2023-07-31T06:51:41;4.95;;;2.22;;
56943;SDS011;42848;42.524;12.052;2023-07-31T06:54:08;5.55;;;2.40;;
56943;SDS011;42848;42.524;12.052;2023-07-31T06:56:33;4.32;;;2.17;;
56943;SDS011;42848;42.524;12.052;2023-07-31T06:58:59;4.10;;;2.20;;
56943;SDS011;42848;42.524;12.052;2023-07-31T07:01:25;7.90;;;3.05;;
56943;SDS011;42848;42.524;12.052;2023-07-31T07:03:50;4.55;;;2.50;;
56943;SDS011;42848;42.524;12.052;2023-07-31T07:06:19;13.80;;;5.95;;
56943;SDS011;42848;42.524;12.052;2023-07-31T07:08:45;8.63;;;2.35;;
56943;SDS011;42848;42.524;12.052;2023-07-31T07:11:11;4.68;;;2.15;;
56943;SDS011;42848;42.524;12.052;2023-07-31T07:13:36;3.42;;;2.10;;
56943;SDS011;42848;42.524;12.052;2023-07-31T07:16:02;4.68;;;2.10;;
56943;SDS011;42848;42.524;12.052;2023-07-31T07:18:27;7.45;;;3.38;;
56943;SDS011;42848;42.524;12.052;2023-07-31T07:20:53;4.45;;;2.50;;
56943;SDS011;42848;42.524;12.052;2023-07-31T07:23:22;4.03;;;2.05;;
56943;SDS011;42848;42.524;12.052;2023-07-31T07:25:47;3.97;;;2.55;;
56943;SDS011;42848;42.524;12.052;2023-07-31T07:28:13;3.85;;;2.45;;
56943;SDS011;42848;42.524;12.052;2023-07-31T07:30:39;4.35;;;2.10;;
56943;SDS011;42848;42.524;12.052;2023-07-31T07:33:05;5.65;;;2.30;;
56943;SDS011;42848;42.524;12.052;2023-07-31T07:35:34;3.55;;;1.98;;
56943;SDS011;42848;42.524;12.052;2023-07-31T07:38:03;6.72;;;2.30;;
56943;SDS011;42848;42.524;12.052;2023-07-31T07:40:29;3.65;;;2.30;;
56943;SDS011;42848;42.524;12.052;2023-07-31T07:42:54;4.10;;;2.55;;
56943;SDS011;42848;42.524;12.052;2023-07-31T07:45:20;6.22;;;2.60;;
56943;SDS011;42848;42.524;12.052;2023-07-31T07:47:45;5.13;;;2.40;;
56943;SDS011;42848;42.524;12.052;2023-07-31T07:50:11;4.18;;;2.20;;
56943;SDS011;42848;42.524;12.052;2023-07-31T07:52:37;4.97;;;2.35;;
56943;SDS011;42848;42.524;12.052;2023-07-31T07:55:02;7.13;;;2.53;;
56943;SDS011;42848;42.524;12.052;2023-07-31T07:57:34;3.67;;;2.25;;
56943;SDS011;42848;42.524;12.052;2023-07-31T08:00:00;5.20;;;2.50;;
56943;SDS011;42848;42.524;12.052;2023-07-31T08:02:26;4.72;;;2.20;;
56943;SDS011;42848;42.524;12.052;2023-07-31T08:04:51;5.35;;;2.58;;
56943;SDS011;42848;42.524;12.052;2023-07-31T08:07:17;6.20;;;2.58;;
56943;SDS011;42848;42.524;12.052;2023-07-31T08:09:42;5.80;;;2.35;;
56943;SDS011;42848;42.524;12.052;2023-07-31T08:12:08;5.10;;;2.50;;
56943;SDS011;42848;42.524;12.052;2023-07-31T08:14:33;5.03;;;2.30;;
56943;SDS011;42848;42.524;12.052;2023-07-31T08:16:59;4.85;;;2.30;;
56943;SDS011;42848;42.524;12.052;2023-07-31T08:19:26;5.78;;;2.38;;
56943;SDS011;42848;42.524;12.052;2023-07-31T08:21:51;4.07;;;2.03;;
56943;SDS011;42848;42.524;12.052;2023-07-31T08:24:17;10.23;;;2.55;;
56943;SDS011;42848;42.524;12.052;2023-07-31T08:26:42;5.97;;;2.40;;
56943;SDS011;42848;42.524;12.052;2023-07-31T08:29:08;4.90;;;2.17;;
56943;SDS011;42848;42.524;12.052;2023-07-31T08:31:33;4.95;;;2.13;;
56943;SDS011;42848;42.524;12.052;2023-07-31T08:33:59;3.53;;;1.98;;
56943;SDS011;42848;42.524;12.052;2023-07-31T08:36:26;6.85;;;2.20;;
56943;SDS011;42848;42.524;12.052;2023-07-31T08:38:52;4.38;;;2.00;;
56943;SDS011;42848;42.524;12.052;2023-07-31T08:41:18;3.67;;;2.17;;
56943;SDS011;42848;42.524;12.052;2023-07-31T08:43:44;4.63;;;2.25;;
56943;SDS011;42848;42.524;12.052;2023-07-31T08:46:11;5.07;;;2.20;;
56943;SDS011;42848;42.524;12.052;2023-07-31T08:48:40;3.60;;;2.13;;
56943;SDS011;42848;42.524;12.052;2023-07-31T08:51:09;4.93;;;2.20;;
56943;SDS011;42848;42.524;12.052;2023-07-31T08:53:35;4.15;;;2.10;;
56943;SDS011;42848;42.524;12.052;2023-07-31T08:56:00;4.90;;;2.20;;
56943;SDS011;42848;42.524;12.052;2023-07-31T08:58:27;3.97;;;2.22;;
56943;SDS011;42848;42.524;12.052;2023-07-31T09:00:56;5.47;;;2.10;;
56943;SDS011;42848;42.524;12.052;2023-07-31T09:03:26;4.22;;;2.30;;
56943;SDS011;42848;42.524;12.052;2023-07-31T09:05:51;4.15;;;2.20;;
56943;SDS011;42848;42.524;12.052;2023-07-31T09:08:20;3.55;;;2.20;;
56943;SDS011;42848;42.524;12.052;2023-07-31T09:10:47;4.82;;;3.10;;
56943;SDS011;42848;42.524;12.052;2023-07-31T09:13:17;3.25;;;2.20;;
56943;SDS011;42848;42.524;12.052;2023-07-31T09:15:43;3.80;;;2.25;;
56943;SDS011;42848;42.524;12.052;2023-07-31T09:18:11;3.33;;;2.20;;
56943;SDS011;42848;42.524;12.052;2023-07-31T09:20:37;3.75;;;2.13;;
56943;SDS011;42848;42.524;12.052;2023-07-31T09:23:13;4.47;;;2.40;;
56943;SDS011;42848;42.524;12.052;2023-07-31T09:25:43;3.10;;;2.20;;
56943;SDS011;42848;42.524;12.052;2023-07-31T09:28:10;5.80;;;2.55;;
56943;SDS011;42848;42.524;12.052;2023-07-31T09:30:49;4.43;;;2.53;;
56943;SDS011;42848;42.524;12.052;2023-07-31T09:33:17;4.65;;;2.70;;
56943;SDS011;42848;42.524;12.052;2023-07-31T09:35:44;3.45;;;2.28;;
56943;SDS011;42848;42.524;12.052;2023-07-31T09:38:10;3.15;;;2.25;;
56943;SDS011;42848;42.524;12.052;2023-07-31T09:40:41;5.10;;;2.40;;
56943;SDS011;42848;42.524;12.052;2023-07-31T09:43:09;3.85;;;2.60;;
56943;SDS011;42848;42.524;12.052;2023-07-31T09:45:38;4.30;;;2.45;;
56943;SDS011;42848;42.524;12.052;2023-07-31T09:48:08;3.75;;;2.35;;
56943;SDS011;42848;42.524;12.052;2023-07-31T09:50:36;3.45;;;2.20;;
56943;SDS011;42848;42.524;12.052;2023-07-31T09:53:06;4.22;;;2.40;;
56943;SDS011;42848;42.524;12.052;2023-07-31T09:55:33;4.38;;;2.20;;
56943;SDS011;42848;42.524;12.052;2023-07-31T09:58:02;3.53;;;2.13;;
56943;SDS011;42848;42.524;12.052;2023-07-31T10:00:30;3.55;;;2.20;;
56943;SDS011;42848;42.524;12.052;2023-07-31T10:02:58;4.75;;;2.38;;
56943;SDS011;42848;42.524;12.052;2023-07-31T10:05:34;3.50;;;2.20;;
56943;SDS011;42848;42.524;12.052;2023-07-31T10:08:03;3.58;;;2.60;;
56943;SDS011;42848;42.524;12.052;2023-07-31T10:10:30;3.60;;;2.00;;
56943;SDS011;42848;42.524;12.052;2023-07-31T10:12:57;3.33;;;2.17;;
56943;SDS011;42848;42.524;12.052;2023-07-31T10:15:25;2.60;;;1.90;;
56943;SDS011;42848;42.524;12.052;2023-07-31T10:17:52;4.07;;;2.40;;
56943;SDS011;42848;42.524;12.052;2023-07-31T10:20:19;2.85;;;2.20;;
56943;SDS011;42848;42.524;12.052;2023-07-31T10:22:46;2.75;;;2.00;;
56943;SDS011;42848;42.524;12.052;2023-07-31T10:25:13;3.35;;;2.20;;
56943;SDS011;42848;42.524;12.052;2023-07-31T10:27:40;4.70;;;2.20;;
56943;SDS011;42848;42.524;12.052;2023-07-31T10:30:17;4.18;;;1.98;;
56943;SDS011;42848;42.524;12.052;2023-07-31T10:32:44;2.80;;;2.10;;
56943;SDS011;42848;42.524;12.052;2023-07-31T10:35:11;2.75;;;1.90;;
56943;SDS011;42848;42.524;12.052;2023-07-31T10:37:41;2.50;;;1.90;;
56943;SDS011;42848;42.524;12.052;2023-07-31T10:40:12;4.65;;;1.80;;
56943;SDS011;42848;42.524;12.052;2023-07-31T10:45:27;3.53;;;2.10;;
56943;SDS011;42848;42.524;12.052;2023-07-31T10:48:05;3.13;;;2.05;;
56943;SDS011;42848;42.524;12.052;2023-07-31T10:50:48;3.80;;;2.60;;
56943;SDS011;42848;42.524;12.052;2023-07-31T10:53:30;3.95;;;1.95;;
56943;SDS011;42848;42.524;12.052;2023-07-31T10:56:01;2.75;;;1.90;;
56943;SDS011;42848;42.524;12.052;2023-07-31T10:58:29;2.92;;;1.80;;
56943;SDS011;42848;42.524;12.052;2023-07-31T11:00:58;3.92;;;2.03;;
56943;SDS011;42848;42.524;12.052;2023-07-31T11:06:18;3.03;;;2.20;;
56943;SDS011;42848;42.524;12.052;2023-07-31T11:08:44;2.90;;;1.95;;
56943;SDS011;42848;42.524;12.052;2023-07-31T11:11:12;3.42;;;1.80;;
56943;SDS011;42848;42.524;12.052;2023-07-31T11:16:11;4.30;;;2.22;;
56943;SDS011;42848;42.524;12.052;2023-07-31T11:18:39;3.25;;;2.42;;
56943;SDS011;42848;42.524;12.052;2023-07-31T11:21:21;4.32;;;2.40;;
56943;SDS011;42848;42.524;12.052;2023-07-31T11:23:51;3.20;;;2.10;;
56943;SDS011;42848;42.524;12.052;2023-07-31T11:26:18;3.22;;;2.20;;
56943;SDS011;42848;42.524;12.052;2023-07-31T11:28:46;3.10;;;2.17;;
56943;SDS011;42848;42.524;12.052;2023-07-31T11:31:13;3.25;;;2.00;;
56943;SDS011;42848;42.524;12.052;2023-07-31T11:33:39;2.95;;;2.15;;
56943;SDS011;42848;42.524;12.052;2023-07-31T11:36:05;4.03;;;2.20;;
56943;SDS011;42848;42.524;12.052;2023-07-31T11:38:31;3.30;;;2.28;;
56943;SDS011;42848;42.524;12.052;2023-07-31T11:40:59;3.00;;;2.00;;
56943;SDS011;42848;42.524;12.052;2023-07-31T11:43:28;5.47;;;2.10;;
56943;SDS011;42848;42.524;12.052;2023-07-31T11:45:55;3.25;;;2.10;;
56943;SDS011;42848;42.524;12.052;2023-07-31T11:48:23;3.30;;;2.10;;
56943;SDS011;42848;42.524;12.052;2023-07-31T11:50:50;3.90;;;1.98;;
56943;SDS011;42848;42.524;12.052;2023-07-31T11:53:17;3.45;;;2.05;;
56943;SDS011;42848;42.524;12.052;2023-07-31T11:55:46;5.35;;;2.20;;
56943;SDS011;42848;42.524;12.052;2023-07-31T11:58:12;3.33;;;2.00;;
56943;SDS011;42848;42.524;12.052;2023-07-31T12:00:40;3.72;;;2.25;;
56943;SDS011;42848;42.524;12.052;2023-07-31T12:03:06;3.53;;;2.17;;
56943;SDS011;42848;42.524;12.052;2023-07-31T12:05:32;5.18;;;2.38;;
56943;SDS011;42848;42.524;12.052;2023-07-31T12:07:58;4.28;;;3.08;;
56943;SDS011;42848;42.524;12.052;2023-07-31T12:10:24;4.07;;;2.10;;
56943;SDS011;42848;42.524;12.052;2023-07-31T12:15:29;3.17;;;2.00;;
56943;SDS011;42848;42.524;12.052;2023-07-31T12:17:57;3.15;;;2.22;;
56943;SDS011;42848;42.524;12.052;2023-07-31T12:20:24;4.15;;;2.10;;
56943;SDS011;42848;42.524;12.052;2023-07-31T12:22:49;3.60;;;2.10;;
56943;SDS011;42848;42.524;12.052;2023-07-31T12:25:15;2.92;;;2.03;;
56943;SDS011;42848;42.524;12.052;2023-07-31T12:27:44;2.97;;;1.90;;
56943;SDS011;42848;42.524;12.052;2023-07-31T12:30:27;3.42;;;2.20;;
56943;SDS011;42848;42.524;12.052;2023-07-31T12:32:53;2.95;;;1.90;;
56943;SDS011;42848;42.524;12.052;2023-07-31T12:35:19;3.08;;;2.10;;
56943;SDS011;42848;42.524;12.052;2023-07-31T12:37:45;3.20;;;2.05;;
56943;SDS011;42848;42.524;12.052;2023-07-31T12:40:10;4.30;;;1.90;;
56943;SDS011;42848;42.524;12.052;2023-07-31T12:42:36;4.30;;;2.08;;
56943;SDS011;42848;42.524;12.052;2023-07-31T12:45:02;2.70;;;2.13;;
56943;SDS011;42848;42.524;12.052;2023-07-31T12:47:29;3.30;;;1.98;;
56943;SDS011;42848;42.524;12.052;2023-07-31T12:49:55;3.90;;;2.35;;
56943;SDS011;42848;42.524;12.052;2023-07-31T12:52:20;3.13;;;2.00;;
56943;SDS011;42848;42.524;12.052;2023-07-31T12:54:46;3.30;;;2.17;;
56943;SDS011;42848;42.524;12.052;2023-07-31T12:57:12;5.55;;;2.20;;
56943;SDS011;42848;42.524;12.052;2023-07-31T12:59:38;3.17;;;2.00;;
56943;SDS011;42848;42.524;12.052;2023-07-31T13:02:04;3.67;;;2.10;;
56943;SDS011;42848;42.524;12.052;2023-07-31T13:04:30;3.95;;;2.25;;
56943;SDS011;42848;42.524;12.052;2023-07-31T13:06:56;3.78;;;2.10;;
56943;SDS011;42848;42.524;12.052;2023-07-31T13:09:21;3.10;;;2.22;;
56943;SDS011;42848;42.524;12.052;2023-07-31T13:11:47;2.58;;;1.92;;
56943;SDS011;42848;42.524;12.052;2023-07-31T13:14:12;4.45;;;1.92;;
56943;SDS011;42848;42.524;12.052;2023-07-31T13:16:38;3.20;;;2.20;;
56943;SDS011;42848;42.524;12.052;2023-07-31T13:19:03;5.03;;;2.50;;
56943;SDS011;42848;42.524;12.052;2023-07-31T13:21:29;2.30;;;1.88;;
56943;SDS011;42848;42.524;12.052;2023-07-31T13:23:55;3.00;;;2.20;;
56943;SDS011;42848;42.524;12.052;2023-07-31T13:26:23;2.70;;;2.00;;
56943;SDS011;42848;42.524;12.052;2023-07-31T13:28:48;3.58;;;2.05;;
56943;SDS011;42848;42.524;12.052;2023-07-31T13:31:14;2.95;;;1.98;;
56943;SDS011;42848;42.524;12.052;2023-07-31T13:33:39;3.25;;;2.00;;
56943;SDS011;42848;42.524;12.052;2023-07-31T13:36:05;5.55;;;2.05;;
56943;SDS011;42848;42.524;12.052;2023-07-31T13:38:31;3.47;;;2.20;;
56943;SDS011;42848;42.524;12.052;2023-07-31T13:40:56;5.28;;;2.30;;
56943;SDS011;42848;42.524;12.052;2023-07-31T13:43:22;2.83;;;2.03;;
56943;SDS011;42848;42.524;12.052;2023-07-31T13:45:47;4.75;;;2.25;;
56943;SDS011;42848;42.524;12.052;2023-07-31T13:48:13;3.33;;;2.15;;
56943;SDS011;42848;42.524;12.052;2023-07-31T13:50:38;3.15;;;2.30;;
56943;SDS011;42848;42.524;12.052;2023-07-31T13:53:04;3.42;;;2.20;;
56943;SDS011;42848;42.524;12.052;2023-07-31T13:55:29;3.38;;;2.20;;
56943;SDS011;42848;42.524;12.052;2023-07-31T13:57:55;4.05;;;2.22;;
56943;SDS011;42848;42.524;12.052;2023-07-31T14:00:20;3.85;;;2.10;;
56943;SDS011;42848;42.524;12.052;2023-07-31T14:02:47;3.00;;;1.98;;
56943;SDS011;42848;42.524;12.052;2023-07-31T14:05:12;3.72;;;2.20;;
56943;SDS011;42848;42.524;12.052;2023-07-31T14:07:38;3.03;;;2.00;;
56943;SDS011;42848;42.524;12.052;2023-07-31T14:10:04;3.30;;;1.80;;
56943;SDS011;42848;42.524;12.052;2023-07-31T14:12:30;3.95;;;2.10;;
56943;SDS011;42848;42.524;12.052;2023-07-31T14:14:56;4.03;;;2.03;;
56943;SDS011;42848;42.524;12.052;2023-07-31T14:17:21;4.20;;;2.22;;
56943;SDS011;42848;42.524;12.052;2023-07-31T14:19:47;3.35;;;2.28;;
56943;SDS011;42848;42.524;12.052;2023-07-31T14:22:12;4.20;;;2.30;;
56943;SDS011;42848;42.524;12.052;2023-07-31T14:24:38;3.92;;;2.60;;
56943;SDS011;42848;42.524;12.052;2023-07-31T14:27:03;4.05;;;2.35;;
56943;SDS011;42848;42.524;12.052;2023-07-31T14:29:29;3.65;;;1.95;;
56943;SDS011;42848;42.524;12.052;2023-07-31T14:31:55;4.20;;;2.50;;
56943;SDS011;42848;42.524;12.052;2023-07-31T14:34:20;4.90;;;2.28;;
56943;SDS011;42848;42.524;12.052;2023-07-31T14:36:46;4.47;;;2.45;;
56943;SDS011;42848;42.524;12.052;2023-07-31T14:39:12;4.75;;;2.20;;
56943;SDS011;42848;42.524;12.052;2023-07-31T14:41:37;3.40;;;2.22;;